Gillette, WY (82716)

6:23 PM MDT on March 28, 2017 (GMT -0600)
Lakeland Hills | | Change Station

Elev 4580 ft 44.30 °N, 105.48 °W | Updated 10 seconds ago

Mostly Cloudy
Mostly Cloudy
48.4 °F
Feels Like 44 °F
N
11.2
Wind Variable Wind from West
Gusts 16.8 mph

Today
High -- | Low -- °F
--% Chance of Precip.
Yesterday
High -- | Low -- °F
Precip. -- in
Pressure 30.06 in
Visibility 10.0 miles
Clouds Mostly Cloudy 3600 ft
Windchill 44 °F
Dew Point 39 °F
Humidity 69%
Rainfall 0.00 in
Snow Depth Not available.
6:49 AM 7:24 PM
New Moon, 1% visible
METAR KGCC 282353Z AUTO 34012KT 10SM BKN036 09/03 A3006 RMK AO2 SLP177 T00890028 10100 20056 53005
Pressure 30.06 in
Visibility 10.0 miles
Clouds Mostly Cloudy 3600 ft
Windchill 44 °F
Dew Point 39 °F
Humidity 69%
Rainfall 0.00 in
Snow Depth Not available.
6:49 AM 7:24 PM
New Moon, 1% visible
METAR KGCC 282353Z AUTO 34012KT 10SM BKN036 09/03 A3006 RMK AO2 SLP177 T00890028 10100 20056 53005

Get Severe Weather Alerts

Thanks for signing up!

Be on the lookout for a verification email in your inbox.

You'll start receiving the daily forecast at 8 AM.

×

10-Day Weather Forecast

Almanac

Astronomy

Mar. 28, 2017 Rise Set
Actual Time
Civil Twilight
Nautical Twilight
Astronomical Twilight
Moon
Length of Visible Light
Length of Day
Tomorrow will be .
, % of the Moon is Illuminated

Today's Extremes

State Highs State Lows

Community

WunderPhotos

Upload Photos

1,962,540 photos uploaded!

WunderBlog® & News

Nearby

Air Quality

  Air Quality AQ Index Pollutant
Not available.

Snow Depth

Station Depth Elevation

Earthquake Activity

City Distance Mag. Time & Date
Minimum magnitude displayed is 2.5.

Earthquake Activity

City Distance Mag. Time & Date
Minimum magnitude displayed is 2.5.

Coastal Water Temperatures

Place Temperature

Stations

Nearby Weather Stations

Station Location Temp. Windchill Dew Point Humidity Wind Precip. Elev Updated Type
                   

Watches & Warnings

There are currently no watches in effect.